createdAt,value
2019-01-10T00:00:28.363Z,85.75
2019-01-10T00:02:21.251Z,85.57
2019-01-10T00:03:21.254Z,85.75
2019-01-10T00:05:14.152Z,85.66
2019-01-10T00:06:14.153Z,85.94
2019-01-10T00:08:07.043Z,86.04
2019-01-10T00:09:07.049Z,85.85
2019-01-10T00:10:59.947Z,86.22
2019-01-10T00:11:59.949Z,86.04
2019-01-10T00:13:52.835Z,86.22
2019-01-10T00:14:52.843Z,86.22
2019-01-10T00:16:45.738Z,86.32
2019-01-10T00:17:45.744Z,86.22
2019-01-10T00:19:38.652Z,86.32
2019-01-10T00:20:38.639Z,86.04
2019-01-10T00:22:31.530Z,86.13
2019-01-10T00:23:31.538Z,86.04
2019-01-10T00:25:24.435Z,86.98
2019-01-10T00:26:24.434Z,86.89
2019-01-10T00:28:17.324Z,86.70
2019-01-10T00:29:17.333Z,86.60
2019-01-10T00:31:10.225Z,86.70
2019-01-10T00:32:10.226Z,86.60
2019-01-10T00:34:03.117Z,86.60
2019-01-10T00:35:03.122Z,86.89
2019-01-10T00:36:56.018Z,87.17
2019-01-10T00:37:56.017Z,86.98
2019-01-10T00:39:48.907Z,86.98
2019-01-10T00:40:48.914Z,87.08
2019-01-10T00:42:49.196Z,87.65
2019-01-10T00:43:41.813Z,87.32
2019-01-10T00:45:34.727Z,87.79
2019-01-10T00:46:34.707Z,87.51
2019-01-10T00:48:27.596Z,87.98
2019-01-10T00:49:27.603Z,88.17
2019-01-10T00:51:20.499Z,88.55
2019-01-10T00:52:20.499Z,88.26
2019-01-10T00:54:13.384Z,88.45
2019-01-10T00:55:13.392Z,88.83
2019-01-10T00:57:06.301Z,89.12
2019-01-10T00:58:06.290Z,88.83
2019-01-10T00:59:59.178Z,89.12
2019-01-10T01:00:59.188Z,88.74
2019-01-10T01:02:52.084Z,89.69
2019-01-10T01:03:52.084Z,89.69
2019-01-10T01:05:44.976Z,89.69
2019-01-10T01:06:44.983Z,90.25
2019-01-10T01:08:37.878Z,90.25
2019-01-10T01:09:37.879Z,90.06
2019-01-10T01:11:30.775Z,89.87
2019-01-10T01:12:30.775Z,89.97
2019-01-10T01:14:23.661Z,90.44
2019-01-10T01:15:23.671Z,90.63
2019-01-10T01:17:16.567Z,90.44
2019-01-10T01:18:16.567Z,90.44
2019-01-10T01:20:09.455Z,90.63
2019-01-10T01:21:09.464Z,90.63
2019-01-10T01:23:02.361Z,90.63
2019-01-10T01:24:02.363Z,90.63
2019-01-10T01:25:55.252Z,90.72
2019-01-10T01:26:55.259Z,90.63
2019-01-10T01:28:48.156Z,90.82
2019-01-10T01:29:48.155Z,90.82
2019-01-10T01:31:41.044Z,90.44
2019-01-10T01:32:41.050Z,90.72
2019-01-10T01:34:33.947Z,90.34
2019-01-10T01:35:33.946Z,89.69
2019-01-10T01:37:26.857Z,90.06
2019-01-10T01:38:26.842Z,90.16
2019-01-10T01:40:19.732Z,90.25
2019-01-10T01:41:19.738Z,90.06
2019-01-10T01:43:12.635Z,89.87
2019-01-10T01:44:12.636Z,89.78
2019-01-10T01:46:07.705Z,89.97
2019-01-10T01:47:05.533Z,89.87
2019-01-10T01:48:58.427Z,89.59
2019-01-10T01:49:58.426Z,89.59
2019-01-10T01:51:51.315Z,89.87
2019-01-10T01:52:53.416Z,89.78
2019-01-10T01:54:44.219Z,89.69
2019-01-10T01:55:44.218Z,89.97
2019-01-10T01:57:37.110Z,89.87
2019-01-10T01:58:37.120Z,89.69
2019-01-10T02:00:30.015Z,89.87
2019-01-10T02:01:30.015Z,90.06
2019-01-10T02:03:22.912Z,90.06
2019-01-10T02:04:22.913Z,90.44
2019-01-10T02:06:15.798Z,90.34
2019-01-10T02:07:15.807Z,90.06
2019-01-10T02:09:08.703Z,89.97
2019-01-10T02:10:08.703Z,89.97
2019-01-10T02:12:01.594Z,90.16
2019-01-10T02:13:01.603Z,89.97
2019-01-10T02:14:54.499Z,89.97
2019-01-10T02:15:54.499Z,90.25
2019-01-10T02:17:49.341Z,90.16
2019-01-10T02:18:47.889Z,90.20
2019-01-10T02:20:40.786Z,90.20
2019-01-10T02:21:40.787Z,90.25
2019-01-10T02:23:33.678Z,90.16
2019-01-10T02:24:33.685Z,90.06
2019-01-10T02:26:26.578Z,90.06
2019-01-10T02:27:26.579Z,89.87
2019-01-10T02:29:19.468Z,90.25
2019-01-10T02:30:19.478Z,90.72
2019-01-10T02:32:12.379Z,90.72
2019-01-10T02:33:12.372Z,90.16
2019-01-10T02:35:05.274Z,90.63
2019-01-10T02:36:05.269Z,90.82
2019-01-10T02:37:58.159Z,90.91
2019-01-10T02:38:58.168Z,90.91
2019-01-10T02:40:51.067Z,91.01
2019-01-10T02:41:51.062Z,90.82
2019-01-10T02:43:43.953Z,90.72
2019-01-10T02:44:43.963Z,90.86
2019-01-10T02:46:36.855Z,90.82
2019-01-10T02:47:36.855Z,90.77
2019-01-10T02:49:29.742Z,90.82
2019-01-10T02:50:29.750Z,91.10
2019-01-10T02:52:22.650Z,90.91
2019-01-10T02:53:22.649Z,90.63
2019-01-10T02:55:15.634Z,90.82
2019-01-10T02:56:15.543Z,90.44
2019-01-10T02:58:08.445Z,90.82
2019-01-10T02:59:08.448Z,90.82
2019-01-10T03:01:01.328Z,90.91
2019-01-10T03:02:01.336Z,91.01
2019-01-10T03:03:54.233Z,91.29
2019-01-10T03:04:54.232Z,91.24
2019-01-10T03:06:47.129Z,91.10
2019-01-10T03:07:47.133Z,91.29
2019-01-10T03:09:40.017Z,91.39
2019-01-10T03:10:40.025Z,91.39
2019-01-10T03:12:32.923Z,91.01
2019-01-10T03:13:36.953Z,91.39
2019-01-10T03:15:25.812Z,91.58
2019-01-10T03:16:25.865Z,91.20
2019-01-10T03:18:18.716Z,91.58
2019-01-10T03:19:18.739Z,91.29
2019-01-10T03:21:11.603Z,90.82
2019-01-10T03:22:11.610Z,91.10
2019-01-10T03:24:04.508Z,91.20
2019-01-10T03:25:04.520Z,91.20
2019-01-10T03:26:57.401Z,91.01
2019-01-10T03:27:57.469Z,91.10
2019-01-10T03:29:50.300Z,91.10
2019-01-10T03:30:50.303Z,91.20
2019-01-10T03:32:43.305Z,91.10
2019-01-10T03:33:43.197Z,91.01
2019-01-10T03:35:36.093Z,91.48
2019-01-10T03:36:36.196Z,91.01
2019-01-10T03:38:28.993Z,91.77
2019-01-10T03:39:28.991Z,91.20
2019-01-10T03:41:21.882Z,91.62
2019-01-10T03:42:21.889Z,91.86
2019-01-10T03:44:14.786Z,91.53
2019-01-10T03:45:14.837Z,91.39
2019-01-10T03:47:07.675Z,91.24
2019-01-10T03:48:07.683Z,91.05
2019-01-10T03:50:00.577Z,91.24
2019-01-10T03:51:00.579Z,91.15
2019-01-10T03:52:53.465Z,91.15
2019-01-10T03:53:53.474Z,91.05
2019-01-10T03:55:46.373Z,91.34
2019-01-10T03:56:46.369Z,91.24
2019-01-10T03:58:39.262Z,91.53
2019-01-10T03:59:39.292Z,91.53
2019-01-10T04:01:32.155Z,91.43
2019-01-10T04:02:32.162Z,91.05
2019-01-10T04:04:25.060Z,90.86
2019-01-10T04:05:25.060Z,90.96
2019-01-10T04:07:17.950Z,91.15
2019-01-10T04:08:17.958Z,91.24
2019-01-10T04:10:10.854Z,90.96
2019-01-10T04:11:10.853Z,91.15
2019-01-10T04:13:03.772Z,90.96
2019-01-10T04:14:03.787Z,91.15
2019-01-10T04:15:56.641Z,90.86
2019-01-10T04:16:56.642Z,90.86
2019-01-10T04:18:49.552Z,91.05
2019-01-10T04:19:49.556Z,90.86
2019-01-10T04:21:42.430Z,90.86
2019-01-10T04:22:42.456Z,90.86
2019-01-10T04:24:35.332Z,90.67
2019-01-10T04:25:35.334Z,91.05
2019-01-10T04:27:28.221Z,90.86
2019-01-10T04:28:28.231Z,91.43
2019-01-10T04:30:21.127Z,91.43
2019-01-10T04:31:21.128Z,91.05
2019-01-10T04:33:14.016Z,90.86
2019-01-10T04:34:14.022Z,91.05
2019-01-10T04:36:06.921Z,91.05
2019-01-10T04:37:06.921Z,91.34
2019-01-10T04:38:59.810Z,91.43
2019-01-10T04:39:59.818Z,91.05
2019-01-10T04:41:52.725Z,90.86
2019-01-10T04:42:52.726Z,91.05
2019-01-10T04:44:45.634Z,91.43
2019-01-10T04:45:45.626Z,91.15
2019-01-10T04:47:38.514Z,91.53
2019-01-10T04:48:38.522Z,91.24
2019-01-10T04:50:31.419Z,91.05
2019-01-10T04:51:31.416Z,91.15
2019-01-10T04:53:26.632Z,91.01
2019-01-10T04:54:24.314Z,91.34
2019-01-10T04:56:17.210Z,91.39
2019-01-10T04:57:17.211Z,91.96
2019-01-10T04:59:12.098Z,91.72
2019-01-10T05:00:10.113Z,91.67
2019-01-10T05:02:03.002Z,92.19
2019-01-10T05:03:03.004Z,92.43
2019-01-10T05:04:55.892Z,92.33
2019-01-10T05:05:55.901Z,92.14
2019-01-10T05:07:48.795Z,92.33
2019-01-10T05:08:48.800Z,92.90
2019-01-10T05:10:41.698Z,92.99
2019-01-10T05:11:41.694Z,92.90
2019-01-10T05:13:34.578Z,92.71
2019-01-10T05:14:34.585Z,93.09
2019-01-10T05:16:27.480Z,92.80
2019-01-10T05:17:30.068Z,93.56
2019-01-10T05:19:20.369Z,93.28
2019-01-10T05:20:20.377Z,94.04
2019-01-10T05:22:13.278Z,93.47
2019-01-10T05:23:13.275Z,93.37
2019-01-10T05:25:06.163Z,93.94
2019-01-10T05:26:06.167Z,93.18
2019-01-10T05:27:59.063Z,93.28
2019-01-10T05:28:59.066Z,93.56
2019-01-10T05:30:51.995Z,93.37
2019-01-10T05:31:51.963Z,93.37
2019-01-10T05:33:44.854Z,93.66
2019-01-10T05:34:44.855Z,93.37
2019-01-10T05:36:38.251Z,93.37
2019-01-10T05:37:38.248Z,93.28
2019-01-10T05:39:31.193Z,93.56
2019-01-10T05:40:31.145Z,94.13
2019-01-10T05:42:24.087Z,93.85
2019-01-10T05:43:24.045Z,93.85
2019-01-10T05:45:16.949Z,93.85
2019-01-10T05:46:16.940Z,93.94
2019-01-10T05:48:09.838Z,94.32
2019-01-10T05:49:09.837Z,94.42
2019-01-10T05:51:02.724Z,94.04
2019-01-10T05:52:02.733Z,94.23
2019-01-10T05:53:55.630Z,94.51
2019-01-10T05:54:55.629Z,94.70
2019-01-10T05:56:48.529Z,94.70
2019-01-10T05:57:48.525Z,94.79
2019-01-10T05:59:41.414Z,94.51
2019-01-10T06:00:41.424Z,94.70
2019-01-10T06:02:34.321Z,95.07
2019-01-10T06:03:34.321Z,94.60
2019-01-10T06:05:27.718Z,94.89
2019-01-10T06:06:27.720Z,94.79
2019-01-10T06:08:20.616Z,95.07
2019-01-10T06:09:20.619Z,94.89
2019-01-10T06:11:13.505Z,94.51
2019-01-10T06:12:13.512Z,94.51
2019-01-10T06:14:06.409Z,94.32
2019-01-10T06:15:06.409Z,94.51
2019-01-10T06:16:59.809Z,95.07
2019-01-10T06:17:59.817Z,95.45
2019-01-10T06:19:52.711Z,95.17
2019-01-10T06:20:52.713Z,95.55
2019-01-10T06:22:46.623Z,95.74
2019-01-10T06:23:46.612Z,95.55
2019-01-10T06:25:39.500Z,96.12
2019-01-10T06:26:39.507Z,96.21
2019-01-10T06:28:32.405Z,96.02
2019-01-10T06:29:32.408Z,95.93
2019-01-10T06:31:25.300Z,96.12
2019-01-10T06:32:25.303Z,95.93
2019-01-10T06:34:18.202Z,96.02
2019-01-10T06:35:18.200Z,95.83
2019-01-10T06:37:11.085Z,96.69
2019-01-10T06:38:11.094Z,96.78
2019-01-10T06:40:03.993Z,96.50
2019-01-10T06:41:03.993Z,96.59
2019-01-10T06:42:56.898Z,96.78
2019-01-10T06:43:56.887Z,96.40
2019-01-10T06:45:49.807Z,96.78
2019-01-10T06:46:49.810Z,96.69
2019-01-10T06:48:42.705Z,96.97
2019-01-10T06:49:42.704Z,97.06
2019-01-10T06:51:36.265Z,97.06
2019-01-10T06:52:35.601Z,97.06
2019-01-10T06:54:28.496Z,97.06
2019-01-10T06:55:28.498Z,96.88
2019-01-10T06:57:21.387Z,97.44
2019-01-10T06:58:21.392Z,97.34
2019-01-10T07:00:14.300Z,97.25
2019-01-10T07:01:14.288Z,97.34
2019-01-10T07:03:07.184Z,97.44
2019-01-10T07:04:07.190Z,97.34
2019-01-10T07:06:00.087Z,97.06
2019-01-10T07:07:00.171Z,97.91
2019-01-10T07:08:52.982Z,97.72
2019-01-10T07:09:52.982Z,97.53
2019-01-10T07:11:45.870Z,97.53
2019-01-10T07:12:45.877Z,97.44
2019-01-10T07:14:38.772Z,97.34
2019-01-10T07:15:39.331Z,97.25
2019-01-10T07:17:31.662Z,97.16
2019-01-10T07:18:31.668Z,97.25
2019-01-10T07:20:24.567Z,97.16
2019-01-10T07:21:24.566Z,97.34
2019-01-10T07:23:17.492Z,97.34
2019-01-10T07:24:17.497Z,97.44
2019-01-10T07:26:10.393Z,96.97
2019-01-10T07:27:10.394Z,96.78
2019-01-10T07:29:03.284Z,97.53
2019-01-10T07:30:03.292Z,97.25
2019-01-10T07:31:56.188Z,97.25
2019-01-10T07:32:56.186Z,97.25
2019-01-10T07:34:49.089Z,97.25
2019-01-10T07:35:49.090Z,97.25
2019-01-10T07:37:41.983Z,98.10
2019-01-10T07:38:41.987Z,97.53
2019-01-10T07:40:36.525Z,97.63
2019-01-10T07:41:34.962Z,97.91
2019-01-10T07:43:27.772Z,97.53
2019-01-10T07:44:27.781Z,97.63
2019-01-10T07:46:20.676Z,97.82
2019-01-10T07:47:20.677Z,97.72
2019-01-10T07:49:13.669Z,97.72
2019-01-10T07:50:13.574Z,97.72
2019-01-10T07:52:06.469Z,97.82
2019-01-10T07:53:06.473Z,97.72
2019-01-10T07:54:59.365Z,97.91
2019-01-10T07:55:59.364Z,97.91
2019-01-10T07:57:52.253Z,97.91
2019-01-10T07:58:52.261Z,97.72
2019-01-10T08:00:45.157Z,98.10
2019-01-10T08:01:45.156Z,97.63
2019-01-10T08:03:38.044Z,97.77
2019-01-10T08:04:38.054Z,97.82
2019-01-10T08:06:30.950Z,97.16
2019-01-10T08:07:30.952Z,97.39
2019-01-10T08:09:23.842Z,97.49
2019-01-10T08:10:23.847Z,97.68
2019-01-10T08:12:16.747Z,97.11
2019-01-10T08:13:16.746Z,96.88
2019-01-10T08:15:11.909Z,96.92
2019-01-10T08:16:09.643Z,97.16
2019-01-10T08:18:02.540Z,97.02
2019-01-10T08:19:02.540Z,97.44
2019-01-10T08:20:55.439Z,97.49
2019-01-10T08:21:55.436Z,96.73
2019-01-10T08:23:48.323Z,97.77
2019-01-10T08:24:48.333Z,97.39
2019-01-10T08:26:41.229Z,97.77
2019-01-10T08:27:41.230Z,97.30
2019-01-10T08:29:34.118Z,97.11
2019-01-10T08:30:34.128Z,96.45
2019-01-10T08:32:27.025Z,96.83
2019-01-10T08:33:27.024Z,96.83
2019-01-10T08:35:19.911Z,96.83
2019-01-10T08:36:19.918Z,96.83
2019-01-10T08:38:12.818Z,96.07
2019-01-10T08:39:12.819Z,96.16
2019-01-10T08:41:05.727Z,96.16
2019-01-10T08:42:05.719Z,96.73
2019-01-10T08:43:58.603Z,96.92
2019-01-10T08:44:58.647Z,97.11
2019-01-10T08:46:51.510Z,96.92
2019-01-10T08:47:51.510Z,96.64
2019-01-10T08:49:44.398Z,95.59
2019-01-10T08:50:44.407Z,95.97
2019-01-10T08:52:37.304Z,95.88
2019-01-10T08:53:37.304Z,95.78
2019-01-10T08:55:30.193Z,95.69
2019-01-10T08:56:30.201Z,96.26
2019-01-10T08:58:24.680Z,95.93
2019-01-10T08:59:23.101Z,95.36
2019-01-10T09:01:15.995Z,94.51
2019-01-10T09:02:16.002Z,94.42
2019-01-10T09:04:08.899Z,94.60
2019-01-10T09:05:08.904Z,94.74
2019-01-10T09:07:01.799Z,94.65
2019-01-10T09:08:01.799Z,94.65
2019-01-10T09:09:54.689Z,94.04
2019-01-10T09:10:54.698Z,93.84
2019-01-10T09:12:47.601Z,94.08
2019-01-10T09:13:47.598Z,94.08
2019-01-10T09:15:40.489Z,94.74
2019-01-10T09:16:40.497Z,94.46
2019-01-10T09:18:33.397Z,94.46
2019-01-10T09:19:33.402Z,94.70
2019-01-10T09:21:26.287Z,94.42
2019-01-10T09:22:26.296Z,94.89
2019-01-10T09:24:19.200Z,93.46
2019-01-10T09:25:19.207Z,94.13
2019-01-10T09:27:12.093Z,94.42
2019-01-10T09:28:12.103Z,94.60
2019-01-10T09:30:05.001Z,94.51
2019-01-10T09:31:05.003Z,94.79
2019-01-10T09:32:57.898Z,94.42
2019-01-10T09:33:57.901Z,94.60
2019-01-10T09:35:50.789Z,94.60
2019-01-10T09:36:50.801Z,94.70
2019-01-10T09:38:44.688Z,94.89
2019-01-10T09:39:44.690Z,94.51
2019-01-10T09:41:37.582Z,94.51
2019-01-10T09:42:37.591Z,94.70
2019-01-10T09:44:30.499Z,94.13
2019-01-10T09:45:30.499Z,94.13
2019-01-10T09:47:23.390Z,93.94
2019-01-10T09:48:23.403Z,94.23
2019-01-10T09:50:16.301Z,93.65
2019-01-10T09:51:16.298Z,93.04
2019-01-10T09:53:09.198Z,92.47
2019-01-10T09:54:09.200Z,91.95
2019-01-10T09:56:02.091Z,91.95
2019-01-10T09:57:02.102Z,92.14
2019-01-10T09:58:55.000Z,91.95
2019-01-10T09:59:55.083Z,91.86
2019-01-10T10:01:47.892Z,92.33
2019-01-10T10:02:47.901Z,92.33
2019-01-10T10:04:40.799Z,92.57
2019-01-10T10:05:40.801Z,92.38
2019-01-10T10:07:33.695Z,90.67
2019-01-10T10:08:33.702Z,91.05
2019-01-10T10:10:26.605Z,91.24
2019-01-10T10:11:34.037Z,91.33
2019-01-10T10:13:19.500Z,90.95
2019-01-10T10:14:19.505Z,90.86
2019-01-10T10:16:12.407Z,91.14
2019-01-10T10:17:12.408Z,91.14
2019-01-10T10:19:05.370Z,91.33
2019-01-10T10:20:05.333Z,91.14
2019-01-10T10:21:58.203Z,91.24
2019-01-10T10:22:58.213Z,91.14
2019-01-10T10:24:51.112Z,90.39
2019-01-10T10:25:51.113Z,90.29
2019-01-10T10:27:44.006Z,89.06
2019-01-10T10:28:44.016Z,89.06
2019-01-10T10:30:36.917Z,89.63
2019-01-10T10:31:36.922Z,89.34
2019-01-10T10:33:29.811Z,89.15
2019-01-10T10:34:29.823Z,89.39
2019-01-10T10:36:22.722Z,89.20
2019-01-10T10:37:22.724Z,88.92
2019-01-10T10:39:15.615Z,88.06
2019-01-10T10:40:15.626Z,87.97
2019-01-10T10:42:08.528Z,87.68
2019-01-10T10:43:08.530Z,87.21
2019-01-10T10:45:01.439Z,86.74
2019-01-10T10:46:02.043Z,86.74
2019-01-10T10:47:54.329Z,87.16
2019-01-10T10:48:54.333Z,87.54
2019-01-10T10:50:47.235Z,87.92
2019-01-10T10:51:47.237Z,88.11
2019-01-10T10:53:40.286Z,88.82
2019-01-10T10:54:40.294Z,88.44
2019-01-10T10:56:33.285Z,87.40
2019-01-10T10:57:33.196Z,87.40
2019-01-10T10:59:26.091Z,87.12
2019-01-10T11:00:26.100Z,87.02
2019-01-10T11:02:19.000Z,87.49
2019-01-10T11:03:19.002Z,87.77
2019-01-10T11:05:11.896Z,86.74
2019-01-10T11:06:11.909Z,86.93
2019-01-10T11:08:04.807Z,85.69
2019-01-10T11:09:09.314Z,85.13
2019-01-10T11:10:57.731Z,84.65
2019-01-10T11:11:57.713Z,84.65
2019-01-10T11:13:50.605Z,84.69
2019-01-10T11:14:50.616Z,84.12
2019-01-10T11:16:43.519Z,84.41
2019-01-10T11:17:43.520Z,84.03
2019-01-10T11:19:36.411Z,83.55
2019-01-10T11:20:36.423Z,83.46
2019-01-10T11:22:29.321Z,82.98
2019-01-10T11:23:29.333Z,82.89
2019-01-10T11:25:22.229Z,82.60
2019-01-10T11:26:22.228Z,83.08
2019-01-10T11:28:15.135Z,82.98
2019-01-10T11:29:15.134Z,82.60
2019-01-10T11:31:08.028Z,82.89
2019-01-10T11:32:13.178Z,82.98
2019-01-10T11:34:00.942Z,81.18
2019-01-10T11:35:00.947Z,80.99
2019-01-10T11:36:53.848Z,80.90
2019-01-10T11:37:53.855Z,81.18
2019-01-10T11:39:46.745Z,81.85
2019-01-10T11:40:46.757Z,81.47
2019-01-10T11:42:39.659Z,81.47
2019-01-10T11:43:39.662Z,81.18
2019-01-10T11:45:32.559Z,80.99
2019-01-10T11:46:32.567Z,80.80
2019-01-10T11:48:25.467Z,80.43
2019-01-10T11:49:25.471Z,80.04
2019-01-10T11:51:18.364Z,80.24
2019-01-10T11:52:18.375Z,80.14
2019-01-10T11:54:11.276Z,79.85
2019-01-10T11:55:11.282Z,80.71
2019-01-10T11:57:04.198Z,81.18
2019-01-10T11:58:04.185Z,80.43
2019-01-10T11:59:57.076Z,79.95
2019-01-10T12:00:57.089Z,79.47
2019-01-10T12:02:50.007Z,79.28
2019-01-10T12:03:49.994Z,79.76
2019-01-10T12:05:48.284Z,79.76
2019-01-10T12:06:42.900Z,79.57
2019-01-10T12:08:35.800Z,79.66
2019-01-10T12:09:35.806Z,79.85
2019-01-10T12:11:28.699Z,79.38
2019-01-10T12:12:28.710Z,79.95
2019-01-10T12:14:21.616Z,80.14
2019-01-10T12:15:21.616Z,80.43
2019-01-10T12:17:14.510Z,80.33
2019-01-10T12:18:14.572Z,80.99
2019-01-10T12:20:07.420Z,81.09
2019-01-10T12:21:07.423Z,80.80
2019-01-10T12:23:00.331Z,81.66
2019-01-10T12:24:00.328Z,81.47
2019-01-10T12:25:53.221Z,82.13
2019-01-10T12:26:53.232Z,81.75
2019-01-10T12:28:46.132Z,81.75
2019-01-10T12:29:46.136Z,82.13
2019-01-10T12:31:40.025Z,81.94
2019-01-10T12:32:40.037Z,81.47
2019-01-10T12:34:32.946Z,82.18
2019-01-10T12:35:32.944Z,81.81
2019-01-10T12:37:25.837Z,82.66
2019-01-10T12:38:25.847Z,83.04
2019-01-10T12:40:18.751Z,83.13
2019-01-10T12:41:18.751Z,83.04
2019-01-10T12:43:11.653Z,83.70
2019-01-10T12:44:11.656Z,83.32
2019-01-10T12:46:05.943Z,83.61
2019-01-10T12:47:04.561Z,84.55
2019-01-10T12:48:57.460Z,83.98
2019-01-10T12:49:57.465Z,84.27
2019-01-10T12:51:50.428Z,83.70
2019-01-10T12:52:50.373Z,83.42
2019-01-10T12:54:43.283Z,83.13
2019-01-10T12:56:56.164Z,83.98
2019-01-10T12:57:56.174Z,83.89
2019-01-10T12:59:49.075Z,84.94
2019-01-10T13:00:49.076Z,84.65
2019-01-10T13:02:41.969Z,85.13
2019-01-10T13:03:41.978Z,84.94
2019-01-10T13:05:34.879Z,85.31
2019-01-10T13:06:34.881Z,85.78
2019-01-10T13:08:27.775Z,85.78
2019-01-10T13:09:27.784Z,85.78
2019-01-10T13:11:20.683Z,86.35
2019-01-10T13:12:20.686Z,86.26
2019-01-10T13:14:13.606Z,87.30
2019-01-10T13:15:13.592Z,86.83
2019-01-10T13:17:06.481Z,86.93
2019-01-10T13:18:06.490Z,86.93
2019-01-10T13:19:59.392Z,87.12
2019-01-10T13:20:59.393Z,87.77
2019-01-10T13:22:52.286Z,87.59
2019-01-10T13:23:52.296Z,88.21
2019-01-10T13:25:45.199Z,88.11
2019-01-10T13:26:45.196Z,88.40
2019-01-10T13:28:38.091Z,88.49
2019-01-10T13:29:38.101Z,88.68
2019-01-10T13:31:31.014Z,89.06
2019-01-10T13:32:31.005Z,89.15
2019-01-10T13:34:23.900Z,88.54
2019-01-10T13:35:23.905Z,88.49
2019-01-10T13:37:16.808Z,87.87
2019-01-10T13:38:16.812Z,87.92
2019-01-10T13:40:09.806Z,88.11
2019-01-10T13:41:10.691Z,87.87
2019-01-10T13:43:02.608Z,87.59
2019-01-10T13:44:02.619Z,87.77
2019-01-10T13:45:55.575Z,87.12
2019-01-10T13:46:56.020Z,87.21
2019-01-10T13:48:51.466Z,87.02
2019-01-10T13:49:48.425Z,86.83
2019-01-10T13:51:41.324Z,86.74
2019-01-10T13:52:41.328Z,86.74
2019-01-10T13:54:34.220Z,86.35
2019-01-10T13:55:34.231Z,86.35
2019-01-10T13:57:28.225Z,85.69
2019-01-10T13:58:27.132Z,85.60
2019-01-10T14:00:20.026Z,84.74
2019-01-10T14:01:20.037Z,85.03
2019-01-10T14:03:12.937Z,85.69
2019-01-10T14:06:05.853Z,85.69
2019-01-10T14:07:05.843Z,85.50
2019-01-10T14:08:59.228Z,86.26
2019-01-10T14:09:59.240Z,86.35
2019-01-10T14:11:52.140Z,87.02
2019-01-10T14:12:52.141Z,86.93
2019-01-10T14:14:45.033Z,86.93
2019-01-10T14:15:45.044Z,87.77
2019-01-10T14:17:37.987Z,87.49
2019-01-10T14:18:37.948Z,87.49
2019-01-10T14:20:30.841Z,87.97
2019-01-10T14:21:30.852Z,88.16
2019-01-10T14:23:23.754Z,87.97
2019-01-10T14:24:23.756Z,88.06
2019-01-10T14:26:16.714Z,87.97
2019-01-10T14:27:16.661Z,87.87
2019-01-10T14:29:09.560Z,87.87
2019-01-10T14:30:09.563Z,88.54
2019-01-10T14:32:02.462Z,88.06
2019-01-10T14:33:02.465Z,87.97
2019-01-10T14:34:55.357Z,88.06
2019-01-10T14:35:55.367Z,88.16
2019-01-10T14:37:48.271Z,88.25
2019-01-10T14:38:48.272Z,88.35
2019-01-10T14:40:41.172Z,88.92
2019-01-10T14:41:41.177Z,89.20
2019-01-10T14:43:34.077Z,88.87
2019-01-10T14:44:34.078Z,88.92
2019-01-10T14:46:26.976Z,89.25
2019-01-10T14:47:26.980Z,89.15
2019-01-10T14:49:19.884Z,89.44
2019-01-10T14:50:19.885Z,90.10
2019-01-10T14:52:12.792Z,90.58
2019-01-10T14:53:12.785Z,90.10
2019-01-10T14:55:05.704Z,90.20
2019-01-10T14:56:05.688Z,90.34
2019-01-10T14:57:58.589Z,89.86
2019-01-10T14:58:58.594Z,89.86
2019-01-10T15:00:52.527Z,90.01
2019-01-10T15:01:51.494Z,90.39
2019-01-10T15:03:44.391Z,90.67
2019-01-10T15:04:44.395Z,90.67
2019-01-10T15:06:37.286Z,90.77
2019-01-10T15:07:37.295Z,90.77
2019-01-10T15:09:30.197Z,90.86
2019-01-10T15:10:30.202Z,90.86
2019-01-10T15:12:23.090Z,90.77
2019-01-10T15:13:23.100Z,90.20
2019-01-10T15:15:16.008Z,90.86
2019-01-10T15:16:16.002Z,90.86
2019-01-10T15:18:08.903Z,90.95
2019-01-10T15:19:08.906Z,90.95
2019-01-10T15:21:01.799Z,90.95
2019-01-10T15:22:01.807Z,90.95
2019-01-10T15:23:54.708Z,91.14
2019-01-10T15:24:54.711Z,91.14
2019-01-10T15:26:47.602Z,91.14
2019-01-10T15:27:47.612Z,91.52
2019-01-10T15:29:40.512Z,91.14
2019-01-10T15:30:40.515Z,91.14
2019-01-10T15:32:33.401Z,91.05
2019-01-10T15:33:33.412Z,91.33
2019-01-10T15:35:26.312Z,91.62
2019-01-10T15:36:26.316Z,91.43
2019-01-10T15:38:19.208Z,91.33
2019-01-10T15:39:19.217Z,91.62
2019-01-10T15:41:12.128Z,91.71
2019-01-10T15:42:12.116Z,91.90
2019-01-10T15:44:05.037Z,92.19
2019-01-10T15:45:05.027Z,92.57
2019-01-10T15:46:57.917Z,92.19
2019-01-10T15:47:57.922Z,92.47
2019-01-10T15:49:50.821Z,93.13
2019-01-10T15:50:50.823Z,93.04
2019-01-10T15:52:43.714Z,93.23
2019-01-10T15:53:43.722Z,92.94
2019-01-10T15:55:36.625Z,92.94
2019-01-10T15:56:36.625Z,92.85
2019-01-10T15:58:29.515Z,93.04
2019-01-10T15:59:29.526Z,93.04
2019-01-10T16:01:22.427Z,92.94
2019-01-10T16:02:22.428Z,93.04
2019-01-10T16:04:15.333Z,93.04
2019-01-10T16:05:15.344Z,93.04
2019-01-10T16:07:08.253Z,93.04
2019-01-10T16:08:08.243Z,92.85
2019-01-10T16:10:01.143Z,92.94
2019-01-10T16:11:01.145Z,92.85
2019-01-10T16:12:54.072Z,93.13
2019-01-10T16:13:54.046Z,93.04
2019-01-10T16:15:46.953Z,92.38
2019-01-10T16:16:46.951Z,92.47
2019-01-10T16:18:39.844Z,92.38
2019-01-10T16:19:39.855Z,93.04
2019-01-10T16:21:32.755Z,93.13
2019-01-10T16:22:32.756Z,93.23
2019-01-10T16:24:25.664Z,93.04
2019-01-10T16:25:25.659Z,92.66
2019-01-10T16:27:18.558Z,92.38
2019-01-10T16:28:18.564Z,93.23
2019-01-10T16:30:11.475Z,93.13
2019-01-10T16:31:11.485Z,93.13
2019-01-10T16:33:04.383Z,93.13
2019-01-10T16:34:04.388Z,93.04
2019-01-10T16:35:57.378Z,93.23
2019-01-10T16:36:57.291Z,93.13
2019-01-10T16:38:50.182Z,92.94
2019-01-10T16:39:50.194Z,93.13
2019-01-10T16:41:43.171Z,92.94
2019-01-10T16:42:43.185Z,92.85
2019-01-10T16:44:36.074Z,92.85
2019-01-10T16:45:36.072Z,92.85
2019-01-10T16:47:31.717Z,93.04
2019-01-10T16:48:28.952Z,93.13
2019-01-10T16:50:21.831Z,93.13
2019-01-10T16:51:21.833Z,93.23
2019-01-10T16:53:14.790Z,92.94
2019-01-10T16:54:14.786Z,92.94
2019-01-10T16:56:07.668Z,92.94
2019-01-10T16:57:08.391Z,93.13
2019-01-10T16:59:00.604Z,93.13
2019-01-10T17:00:00.567Z,92.94
2019-01-10T17:01:54.509Z,93.13
2019-01-10T17:02:54.462Z,93.13
2019-01-10T17:04:47.351Z,93.13
2019-01-10T17:05:47.361Z,93.13
2019-01-10T17:07:40.326Z,93.04
2019-01-10T17:08:40.264Z,93.23
2019-01-10T17:10:33.166Z,92.94
2019-01-10T17:11:33.206Z,92.85
2019-01-10T17:13:26.099Z,92.94
2019-01-10T17:14:26.071Z,92.94
2019-01-10T17:16:18.950Z,93.42
2019-01-10T17:17:18.971Z,93.32
2019-01-10T17:19:11.934Z,93.42
2019-01-10T17:20:11.903Z,93.42
2019-01-10T17:22:04.767Z,93.04
2019-01-10T17:23:04.800Z,93.04
2019-01-10T17:24:57.722Z,93.13
2019-01-10T17:25:57.679Z,93.32
2019-01-10T17:27:50.567Z,93.61
2019-01-10T17:28:50.580Z,93.51
2019-01-10T17:30:43.513Z,93.61
2019-01-10T17:31:43.480Z,93.32
2019-01-10T17:33:36.485Z,93.51
2019-01-10T17:34:36.433Z,93.70
2019-01-10T17:36:29.287Z,93.70
2019-01-10T17:37:29.306Z,94.08
2019-01-10T17:39:22.783Z,94.08
2019-01-10T17:40:22.195Z,93.99
2019-01-10T17:42:15.109Z,93.70
2019-01-10T17:43:15.117Z,93.80
2019-01-10T17:45:13.501Z,94.08
2019-01-10T17:46:08.042Z,93.89
2019-01-10T17:48:01.544Z,93.89
2019-01-10T17:49:00.911Z,93.89
2019-01-10T17:50:53.884Z,93.99
2019-01-10T17:51:53.819Z,93.70
2019-01-10T17:53:47.279Z,94.08
2019-01-10T17:54:46.904Z,94.08
2019-01-10T17:56:40.344Z,93.70
2019-01-10T17:57:39.792Z,93.51
2019-01-10T17:59:32.766Z,93.70
2019-01-10T18:00:32.665Z,93.42
2019-01-10T18:02:26.310Z,93.51
2019-01-10T18:03:25.837Z,93.42
2019-01-10T18:05:19.076Z,93.51
2019-01-10T18:06:18.841Z,93.51
2019-01-10T18:08:11.723Z,93.32
2019-01-10T18:09:11.731Z,93.42
2019-01-10T18:11:04.632Z,93.32
2019-01-10T18:12:04.634Z,93.32
2019-01-10T18:13:57.527Z,93.70
2019-01-10T18:14:57.535Z,93.70
2019-01-10T18:16:50.437Z,93.70
2019-01-10T18:17:50.697Z,93.61
2019-01-10T18:19:43.338Z,93.61
2019-01-10T18:20:43.343Z,93.99
2019-01-10T18:22:36.232Z,93.70
2019-01-10T18:23:36.243Z,93.51
2019-01-10T18:25:29.287Z,94.08
2019-01-10T18:26:29.290Z,94.08
2019-01-10T18:28:22.190Z,93.89
2019-01-10T18:29:22.194Z,94.08
2019-01-10T18:31:15.094Z,94.18
2019-01-10T18:32:16.347Z,94.08
2019-01-10T18:34:07.988Z,94.18
2019-01-10T18:35:07.997Z,94.27